sensor_id;sensor_type;location;lat;lon;timestamp;temperature;humidity
27266;DHT22;14766;51.380;13.762;2023-03-14T00:01:22;14.10;79.30
27266;DHT22;14766;51.380;13.762;2023-03-14T00:03:50;14.10;79.30
27266;DHT22;14766;51.380;13.762;2023-03-14T00:06:17;14.10;79.40
27266;DHT22;14766;51.380;13.762;2023-03-14T00:08:45;14.10;79.30
27266;DHT22;14766;51.380;13.762;2023-03-14T00:11:19;14.10;79.30
27266;DHT22;14766;51.380;13.762;2023-03-14T00:13:50;14.10;79.10
27266;DHT22;14766;51.380;13.762;2023-03-14T00:16:18;14.10;79.00
27266;DHT22;14766;51.380;13.762;2023-03-14T00:18:45;14.10;79.00
27266;DHT22;14766;51.380;13.762;2023-03-14T00:21:12;14.10;78.80
27266;DHT22;14766;51.380;13.762;2023-03-14T00:23:41;14.10;78.70
27266;DHT22;14766;51.380;13.762;2023-03-14T00:26:15;14.10;78.70
27266;DHT22;14766;51.380;13.762;2023-03-14T00:28:43;14.10;78.70
27266;DHT22;14766;51.380;13.762;2023-03-14T00:31:13;14.20;78.70
27266;DHT22;14766;51.380;13.762;2023-03-14T00:33:42;14.10;78.50
27266;DHT22;14766;51.380;13.762;2023-03-14T00:36:11;14.10;78.50
27266;DHT22;14766;51.380;13.762;2023-03-14T00:38:40;14.10;78.40
27266;DHT22;14766;51.380;13.762;2023-03-14T00:41:10;14.10;78.40
27266;DHT22;14766;51.380;13.762;2023-03-14T00:43:38;14.10;78.50
27266;DHT22;14766;51.380;13.762;2023-03-14T00:46:06;14.10;78.60
27266;DHT22;14766;51.380;13.762;2023-03-14T00:48:34;14.10;78.50
27266;DHT22;14766;51.380;13.762;2023-03-14T00:51:05;14.10;78.50
27266;DHT22;14766;51.380;13.762;2023-03-14T00:53:39;14.10;78.50
27266;DHT22;14766;51.380;13.762;2023-03-14T00:56:09;14.10;78.40
27266;DHT22;14766;51.380;13.762;2023-03-14T00:58:36;14.10;78.40
27266;DHT22;14766;51.380;13.762;2023-03-14T01:01:16;14.10;78.30
27266;DHT22;14766;51.380;13.762;2023-03-14T01:03:44;14.10;78.30
27266;DHT22;14766;51.380;13.762;2023-03-14T01:06:15;14.10;78.20
27266;DHT22;14766;51.380;13.762;2023-03-14T01:08:43;14.10;78.10
27266;DHT22;14766;51.380;13.762;2023-03-14T01:11:19;14.10;78.00
27266;DHT22;14766;51.380;13.762;2023-03-14T01:13:46;14.10;77.90
27266;DHT22;14766;51.380;13.762;2023-03-14T01:16:14;14.10;77.80
27266;DHT22;14766;51.380;13.762;2023-03-14T01:18:43;14.20;77.90
27266;DHT22;14766;51.380;13.762;2023-03-14T01:21:19;14.10;77.60
27266;DHT22;14766;51.380;13.762;2023-03-14T01:23:47;14.10;77.50
27266;DHT22;14766;51.380;13.762;2023-03-14T01:26:17;14.20;77.70
27266;DHT22;14766;51.380;13.762;2023-03-14T01:28:46;14.10;77.10
27266;DHT22;14766;51.380;13.762;2023-03-14T01:31:14;14.10;76.90
27266;DHT22;14766;51.380;13.762;2023-03-14T01:33:42;14.10;76.90
27266;DHT22;14766;51.380;13.762;2023-03-14T01:36:10;14.10;77.00
27266;DHT22;14766;51.380;13.762;2023-03-14T01:38:40;14.10;77.00
27266;DHT22;14766;51.380;13.762;2023-03-14T01:41:16;14.10;76.90
27266;DHT22;14766;51.380;13.762;2023-03-14T01:43:45;14.10;76.80
27266;DHT22;14766;51.380;13.762;2023-03-14T01:46:20;14.10;76.80
27266;DHT22;14766;51.380;13.762;2023-03-14T01:49:13;14.10;76.60
27266;DHT22;14766;51.380;13.762;2023-03-14T01:52:01;14.10;77.30
27266;DHT22;14766;51.380;13.762;2023-03-14T01:55:02;14.10;76.50
27266;DHT22;14766;51.380;13.762;2023-03-14T01:57:38;14.10;76.50
27266;DHT22;14766;51.380;13.762;2023-03-14T02:00:15;14.10;76.30
27266;DHT22;14766;51.380;13.762;2023-03-14T02:02:48;14.10;76.20
27266;DHT22;14766;51.380;13.762;2023-03-14T02:05:22;14.10;76.20
27266;DHT22;14766;51.380;13.762;2023-03-14T02:08:05;14.00;76.10
27266;DHT22;14766;51.380;13.762;2023-03-14T02:10:45;14.00;76.00
27266;DHT22;14766;51.380;13.762;2023-03-14T02:13:17;14.00;75.90
27266;DHT22;14766;51.380;13.762;2023-03-14T02:15:45;14.00;75.80
27266;DHT22;14766;51.380;13.762;2023-03-14T02:18:33;14.00;75.70
27266;DHT22;14766;51.380;13.762;2023-03-14T02:21:54;14.00;75.60
27266;DHT22;14766;51.380;13.762;2023-03-14T02:24:33;14.00;75.60
27266;DHT22;14766;51.380;13.762;2023-03-14T02:27:16;14.00;75.60
27266;DHT22;14766;51.380;13.762;2023-03-14T02:29:52;14.00;75.20
27266;DHT22;14766;51.380;13.762;2023-03-14T02:32:21;14.00;75.20
27266;DHT22;14766;51.380;13.762;2023-03-14T02:34:54;13.90;75.20
27266;DHT22;14766;51.380;13.762;2023-03-14T02:37:24;14.00;75.20
27266;DHT22;14766;51.380;13.762;2023-03-14T02:39:54;13.90;75.00
27266;DHT22;14766;51.380;13.762;2023-03-14T02:42:21;14.00;75.00
27266;DHT22;14766;51.380;13.762;2023-03-14T02:47:49;13.90;74.80
27266;DHT22;14766;51.380;13.762;2023-03-14T02:50:23;14.00;74.70
27266;DHT22;14766;51.380;13.762;2023-03-14T02:52:51;13.90;74.60
27266;DHT22;14766;51.380;13.762;2023-03-14T02:55:22;13.90;74.50
27266;DHT22;14766;51.380;13.762;2023-03-14T02:57:52;13.90;74.30
27266;DHT22;14766;51.380;13.762;2023-03-14T03:00:20;13.90;74.30
27266;DHT22;14766;51.380;13.762;2023-03-14T03:02:47;13.90;74.10
27266;DHT22;14766;51.380;13.762;2023-03-14T03:05:14;13.90;73.90
27266;DHT22;14766;51.380;13.762;2023-03-14T03:07:41;13.90;73.90
27266;DHT22;14766;51.380;13.762;2023-03-14T03:10:09;13.80;73.50
27266;DHT22;14766;51.380;13.762;2023-03-14T03:12:37;13.80;73.20
27266;DHT22;14766;51.380;13.762;2023-03-14T03:15:05;13.80;73.00
27266;DHT22;14766;51.380;13.762;2023-03-14T03:17:35;13.80;72.40
27266;DHT22;14766;51.380;13.762;2023-03-14T03:20:02;13.80;71.80
27266;DHT22;14766;51.380;13.762;2023-03-14T03:22:31;13.80;71.90
27266;DHT22;14766;51.380;13.762;2023-03-14T03:25:02;13.80;72.20
27266;DHT22;14766;51.380;13.762;2023-03-14T03:27:31;13.90;71.20
27266;DHT22;14766;51.380;13.762;2023-03-14T03:29:58;13.90;70.80
27266;DHT22;14766;51.380;13.762;2023-03-14T03:32:29;13.90;70.60
27266;DHT22;14766;51.380;13.762;2023-03-14T03:34:56;13.90;70.30
27266;DHT22;14766;51.380;13.762;2023-03-14T03:37:24;13.90;69.90
27266;DHT22;14766;51.380;13.762;2023-03-14T03:39:51;14.00;69.70
27266;DHT22;14766;51.380;13.762;2023-03-14T03:42:19;14.00;69.90
27266;DHT22;14766;51.380;13.762;2023-03-14T03:44:46;14.00;69.30
27266;DHT22;14766;51.380;13.762;2023-03-14T03:47:15;14.00;69.20
27266;DHT22;14766;51.380;13.762;2023-03-14T03:49:42;14.00;69.00
27266;DHT22;14766;51.380;13.762;2023-03-14T03:52:10;14.00;68.50
27266;DHT22;14766;51.380;13.762;2023-03-14T03:54:37;14.00;68.20
27266;DHT22;14766;51.380;13.762;2023-03-14T03:57:05;14.00;68.20
27266;DHT22;14766;51.380;13.762;2023-03-14T03:59:33;14.00;68.10
27266;DHT22;14766;51.380;13.762;2023-03-14T04:02:01;14.00;68.00
27266;DHT22;14766;51.380;13.762;2023-03-14T04:04:28;14.00;68.00
27266;DHT22;14766;51.380;13.762;2023-03-14T04:06:56;14.10;67.50
27266;DHT22;14766;51.380;13.762;2023-03-14T04:09:23;14.00;67.60
27266;DHT22;14766;51.380;13.762;2023-03-14T04:12:08;14.00;67.50
27266;DHT22;14766;51.380;13.762;2023-03-14T04:14:52;14.00;67.40
27266;DHT22;14766;51.380;13.762;2023-03-14T04:17:21;14.00;67.30
27266;DHT22;14766;51.380;13.762;2023-03-14T04:19:48;14.00;67.50
27266;DHT22;14766;51.380;13.762;2023-03-14T04:22:20;14.00;67.40
27266;DHT22;14766;51.380;13.762;2023-03-14T04:24:51;14.00;67.30
27266;DHT22;14766;51.380;13.762;2023-03-14T04:27:20;14.10;67.40
27266;DHT22;14766;51.380;13.762;2023-03-14T04:29:47;14.00;67.20
27266;DHT22;14766;51.380;13.762;2023-03-14T04:32:19;14.00;67.30
27266;DHT22;14766;51.380;13.762;2023-03-14T04:34:47;14.00;67.60
27266;DHT22;14766;51.380;13.762;2023-03-14T04:37:14;14.00;67.30
27266;DHT22;14766;51.380;13.762;2023-03-14T04:39:43;14.00;67.30
27266;DHT22;14766;51.380;13.762;2023-03-14T04:42:16;14.00;67.40
27266;DHT22;14766;51.380;13.762;2023-03-14T04:44:43;14.00;67.30
27266;DHT22;14766;51.380;13.762;2023-03-14T04:47:11;13.90;67.20
27266;DHT22;14766;51.380;13.762;2023-03-14T04:49:40;13.90;67.40
27266;DHT22;14766;51.380;13.762;2023-03-14T04:52:09;13.90;67.30
27266;DHT22;14766;51.380;13.762;2023-03-14T04:54:38;13.90;67.40
27266;DHT22;14766;51.380;13.762;2023-03-14T04:57:05;13.90;67.10
27266;DHT22;14766;51.380;13.762;2023-03-14T04:59:34;14.00;67.10
27266;DHT22;14766;51.380;13.762;2023-03-14T05:02:20;14.00;67.10
27266;DHT22;14766;51.380;13.762;2023-03-14T05:05:16;13.90;67.00
27266;DHT22;14766;51.380;13.762;2023-03-14T05:08:04;13.90;66.80
27266;DHT22;14766;51.380;13.762;2023-03-14T05:10:37;13.90;66.90
27266;DHT22;14766;51.380;13.762;2023-03-14T05:13:23;13.90;66.90
27266;DHT22;14766;51.380;13.762;2023-03-14T05:16:13;13.90;66.80
27266;DHT22;14766;51.380;13.762;2023-03-14T05:18:47;13.90;66.80
27266;DHT22;14766;51.380;13.762;2023-03-14T05:21:37;13.90;66.90
27266;DHT22;14766;51.380;13.762;2023-03-14T05:24:04;13.90;66.80
27266;DHT22;14766;51.380;13.762;2023-03-14T05:27:10;13.90;66.80
27266;DHT22;14766;51.380;13.762;2023-03-14T05:29:37;13.90;66.70
27266;DHT22;14766;51.380;13.762;2023-03-14T05:32:29;13.90;66.80
27266;DHT22;14766;51.380;13.762;2023-03-14T05:35:32;13.80;66.70
27266;DHT22;14766;51.380;13.762;2023-03-14T05:38:25;13.80;66.70
27266;DHT22;14766;51.380;13.762;2023-03-14T05:41:03;13.80;66.80
27266;DHT22;14766;51.380;13.762;2023-03-14T05:44:00;13.80;67.00
27266;DHT22;14766;51.380;13.762;2023-03-14T05:47:02;13.80;66.90
27266;DHT22;14766;51.380;13.762;2023-03-14T05:49:38;13.80;66.90
27266;DHT22;14766;51.380;13.762;2023-03-14T05:52:16;13.80;66.80
27266;DHT22;14766;51.380;13.762;2023-03-14T05:55:01;13.80;66.80
27266;DHT22;14766;51.380;13.762;2023-03-14T05:57:47;13.70;66.80
27266;DHT22;14766;51.380;13.762;2023-03-14T06:00:14;13.70;67.00
27266;DHT22;14766;51.380;13.762;2023-03-14T06:02:58;13.70;66.90
27266;DHT22;14766;51.380;13.762;2023-03-14T06:05:29;13.70;66.90
27266;DHT22;14766;51.380;13.762;2023-03-14T06:07:59;13.70;66.90
27266;DHT22;14766;51.380;13.762;2023-03-14T06:10:29;13.70;67.00
27266;DHT22;14766;51.380;13.762;2023-03-14T06:12:56;13.70;67.00
27266;DHT22;14766;51.380;13.762;2023-03-14T06:15:24;13.70;67.00
27266;DHT22;14766;51.380;13.762;2023-03-14T06:17:54;13.70;67.00
27266;DHT22;14766;51.380;13.762;2023-03-14T06:20:22;13.70;67.20
27266;DHT22;14766;51.380;13.762;2023-03-14T06:22:50;13.70;67.40
27266;DHT22;14766;51.380;13.762;2023-03-14T06:25:17;13.60;67.10
27266;DHT22;14766;51.380;13.762;2023-03-14T06:27:46;13.70;67.40
27266;DHT22;14766;51.380;13.762;2023-03-14T06:30:15;13.70;67.30
27266;DHT22;14766;51.380;13.762;2023-03-14T06:32:43;13.70;67.40
27266;DHT22;14766;51.380;13.762;2023-03-14T06:35:13;13.70;67.30
27266;DHT22;14766;51.380;13.762;2023-03-14T06:37:42;13.70;67.20
27266;DHT22;14766;51.380;13.762;2023-03-14T06:40:11;13.60;67.10
27266;DHT22;14766;51.380;13.762;2023-03-14T06:43:00;13.70;67.40
27266;DHT22;14766;51.380;13.762;2023-03-14T06:45:29;13.70;67.30
27266;DHT22;14766;51.380;13.762;2023-03-14T06:47:58;13.70;67.30
27266;DHT22;14766;51.380;13.762;2023-03-14T06:50:35;13.70;67.10
27266;DHT22;14766;51.380;13.762;2023-03-14T06:53:03;13.70;67.10
27266;DHT22;14766;51.380;13.762;2023-03-14T06:55:32;13.70;67.20
27266;DHT22;14766;51.380;13.762;2023-03-14T06:57:59;13.70;66.80
27266;DHT22;14766;51.380;13.762;2023-03-14T07:00:28;13.70;67.00
27266;DHT22;14766;51.380;13.762;2023-03-14T07:03:27;13.70;66.80
27266;DHT22;14766;51.380;13.762;2023-03-14T07:07:14;13.70;66.70
27266;DHT22;14766;51.380;13.762;2023-03-14T07:09:41;13.70;66.30
27266;DHT22;14766;51.380;13.762;2023-03-14T07:12:09;13.70;66.40
27266;DHT22;14766;51.380;13.762;2023-03-14T07:14:36;13.80;66.50
27266;DHT22;14766;51.380;13.762;2023-03-14T07:17:06;13.80;66.50
27266;DHT22;14766;51.380;13.762;2023-03-14T07:19:33;13.80;66.50
27266;DHT22;14766;51.380;13.762;2023-03-14T07:22:00;13.80;66.20
27266;DHT22;14766;51.380;13.762;2023-03-14T07:24:30;13.90;66.50
27266;DHT22;14766;51.380;13.762;2023-03-14T07:27:00;13.90;66.60
27266;DHT22;14766;51.380;13.762;2023-03-14T07:29:30;13.90;66.50
27266;DHT22;14766;51.380;13.762;2023-03-14T07:32:01;13.90;66.30
27266;DHT22;14766;51.380;13.762;2023-03-14T07:34:30;13.90;66.30
27266;DHT22;14766;51.380;13.762;2023-03-14T07:36:57;14.00;66.10
27266;DHT22;14766;51.380;13.762;2023-03-14T07:39:25;14.00;66.00
27266;DHT22;14766;51.380;13.762;2023-03-14T07:42:08;14.00;66.10
27266;DHT22;14766;51.380;13.762;2023-03-14T07:44:38;14.00;65.90
27266;DHT22;14766;51.380;13.762;2023-03-14T07:47:06;14.00;65.70
27266;DHT22;14766;51.380;13.762;2023-03-14T07:49:33;14.00;66.00
27266;DHT22;14766;51.380;13.762;2023-03-14T07:52:00;14.00;65.70
27266;DHT22;14766;51.380;13.762;2023-03-14T07:54:52;14.10;65.70
27266;DHT22;14766;51.380;13.762;2023-03-14T07:57:19;14.10;65.30
27266;DHT22;14766;51.380;13.762;2023-03-14T07:59:47;14.10;65.10
27266;DHT22;14766;51.380;13.762;2023-03-14T08:02:15;14.20;64.80
27266;DHT22;14766;51.380;13.762;2023-03-14T08:04:42;14.20;65.00
27266;DHT22;14766;51.380;13.762;2023-03-14T08:07:10;14.20;64.60
27266;DHT22;14766;51.380;13.762;2023-03-14T08:09:39;14.20;64.40
27266;DHT22;14766;51.380;13.762;2023-03-14T08:12:07;14.30;64.50
27266;DHT22;14766;51.380;13.762;2023-03-14T08:14:34;14.30;64.20
27266;DHT22;14766;51.380;13.762;2023-03-14T08:17:01;14.40;64.10
27266;DHT22;14766;51.380;13.762;2023-03-14T08:19:29;14.40;64.20
27266;DHT22;14766;51.380;13.762;2023-03-14T08:21:56;14.40;63.60
27266;DHT22;14766;51.380;13.762;2023-03-14T08:24:23;14.50;64.00
27266;DHT22;14766;51.380;13.762;2023-03-14T08:26:50;14.50;64.10
27266;DHT22;14766;51.380;13.762;2023-03-14T08:29:18;14.60;63.80
27266;DHT22;14766;51.380;13.762;2023-03-14T08:31:45;14.60;63.90
27266;DHT22;14766;51.380;13.762;2023-03-14T08:34:12;14.70;63.80
27266;DHT22;14766;51.380;13.762;2023-03-14T08:36:41;14.70;64.00
27266;DHT22;14766;51.380;13.762;2023-03-14T08:39:08;14.80;63.80
27266;DHT22;14766;51.380;13.762;2023-03-14T08:41:37;14.90;63.50
27266;DHT22;14766;51.380;13.762;2023-03-14T08:44:10;14.90;63.30
27266;DHT22;14766;51.380;13.762;2023-03-14T08:46:44;15.00;62.90
27266;DHT22;14766;51.380;13.762;2023-03-14T08:49:11;15.00;62.80
27266;DHT22;14766;51.380;13.762;2023-03-14T08:51:40;15.00;62.70
27266;DHT22;14766;51.380;13.762;2023-03-14T08:54:11;15.10;62.90
27266;DHT22;14766;51.380;13.762;2023-03-14T08:56:39;15.10;62.40
27266;DHT22;14766;51.380;13.762;2023-03-14T08:59:09;15.10;62.30
27266;DHT22;14766;51.380;13.762;2023-03-14T09:01:38;15.20;62.00
27266;DHT22;14766;51.380;13.762;2023-03-14T09:04:05;15.30;61.90
27266;DHT22;14766;51.380;13.762;2023-03-14T09:06:33;15.50;61.60
27266;DHT22;14766;51.380;13.762;2023-03-14T09:09:02;15.60;61.20
27266;DHT22;14766;51.380;13.762;2023-03-14T09:11:30;15.70;60.80
27266;DHT22;14766;51.380;13.762;2023-03-14T09:13:58;15.80;60.70
27266;DHT22;14766;51.380;13.762;2023-03-14T09:16:26;16.10;61.00
27266;DHT22;14766;51.380;13.762;2023-03-14T09:18:53;16.40;59.40
27266;DHT22;14766;51.380;13.762;2023-03-14T09:21:21;16.70;58.50
27266;DHT22;14766;51.380;13.762;2023-03-14T09:23:51;16.90;57.00
27266;DHT22;14766;51.380;13.762;2023-03-14T09:26:19;17.00;56.30
27266;DHT22;14766;51.380;13.762;2023-03-14T09:28:46;17.00;55.70
27266;DHT22;14766;51.380;13.762;2023-03-14T09:31:15;17.10;56.50
27266;DHT22;14766;51.380;13.762;2023-03-14T09:33:42;17.20;55.80
27266;DHT22;14766;51.380;13.762;2023-03-14T09:36:09;17.30;54.60
27266;DHT22;14766;51.380;13.762;2023-03-14T09:38:37;17.30;55.00
27266;DHT22;14766;51.380;13.762;2023-03-14T09:41:15;17.30;55.00
27266;DHT22;14766;51.380;13.762;2023-03-14T09:43:43;17.30;54.30
27266;DHT22;14766;51.380;13.762;2023-03-14T09:46:12;17.30;54.20
27266;DHT22;14766;51.380;13.762;2023-03-14T09:48:40;17.20;53.90
27266;DHT22;14766;51.380;13.762;2023-03-14T09:51:14;17.10;54.20
27266;DHT22;14766;51.380;13.762;2023-03-14T09:53:45;17.00;54.20
27266;DHT22;14766;51.380;13.762;2023-03-14T09:56:27;16.90;53.90
27266;DHT22;14766;51.380;13.762;2023-03-14T09:59:03;16.80;54.40
27266;DHT22;14766;51.380;13.762;2023-03-14T10:01:32;16.70;54.30
27266;DHT22;14766;51.380;13.762;2023-03-14T10:04:10;16.60;54.60
27266;DHT22;14766;51.380;13.762;2023-03-14T10:06:40;16.50;54.60
27266;DHT22;14766;51.380;13.762;2023-03-14T10:09:24;16.50;54.80
27266;DHT22;14766;51.380;13.762;2023-03-14T10:11:58;16.40;55.40
27266;DHT22;14766;51.380;13.762;2023-03-14T10:14:37;16.40;55.40
27266;DHT22;14766;51.380;13.762;2023-03-14T10:17:10;16.30;55.10
27266;DHT22;14766;51.380;13.762;2023-03-14T10:19:50;16.20;55.40
27266;DHT22;14766;51.380;13.762;2023-03-14T10:22:17;16.20;55.50
27266;DHT22;14766;51.380;13.762;2023-03-14T10:24:49;16.10;55.50
27266;DHT22;14766;51.380;13.762;2023-03-14T10:27:27;16.00;55.60
27266;DHT22;14766;51.380;13.762;2023-03-14T10:29:58;16.00;56.00
27266;DHT22;14766;51.380;13.762;2023-03-14T10:32:37;16.00;56.20
27266;DHT22;14766;51.380;13.762;2023-03-14T10:38:00;15.90;56.40
27266;DHT22;14766;51.380;13.762;2023-03-14T10:40:39;15.90;56.70
27266;DHT22;14766;51.380;13.762;2023-03-14T10:43:14;15.90;56.80
27266;DHT22;14766;51.380;13.762;2023-03-14T10:45:43;15.80;57.10
27266;DHT22;14766;51.380;13.762;2023-03-14T10:48:21;15.80;57.00
27266;DHT22;14766;51.380;13.762;2023-03-14T10:56:21;15.80;57.10
27266;DHT22;14766;51.380;13.762;2023-03-14T10:58:50;15.80;56.90
27266;DHT22;14766;51.380;13.762;2023-03-14T11:06:57;15.80;57.30
27266;DHT22;14766;51.380;13.762;2023-03-14T11:15:28;15.90;57.30
27266;DHT22;14766;51.380;13.762;2023-03-14T11:26:41;16.00;56.70
27266;DHT22;14766;51.380;13.762;2023-03-14T11:31:48;16.10;57.10
27266;DHT22;14766;51.380;13.762;2023-03-14T11:34:28;16.10;56.50
27266;DHT22;14766;51.380;13.762;2023-03-14T11:37:05;16.20;56.20
27266;DHT22;14766;51.380;13.762;2023-03-14T11:39:41;16.20;56.10
27266;DHT22;14766;51.380;13.762;2023-03-14T11:42:14;16.10;55.90
27266;DHT22;14766;51.380;13.762;2023-03-14T11:44:46;16.20;55.70
27266;DHT22;14766;51.380;13.762;2023-03-14T11:47:25;16.10;55.80
27266;DHT22;14766;51.380;13.762;2023-03-14T11:52:39;16.10;55.80
27266;DHT22;14766;51.380;13.762;2023-03-14T11:55:11;16.10;56.10
27266;DHT22;14766;51.380;13.762;2023-03-14T11:57:40;16.20;55.80
27266;DHT22;14766;51.380;13.762;2023-03-14T12:00:19;16.10;55.70
27266;DHT22;14766;51.380;13.762;2023-03-14T12:06:01;16.20;56.20
27266;DHT22;14766;51.380;13.762;2023-03-14T12:08:50;16.30;55.70
27266;DHT22;14766;51.380;13.762;2023-03-14T12:11:24;16.30;56.00
27266;DHT22;14766;51.380;13.762;2023-03-14T12:13:53;16.40;55.80
27266;DHT22;14766;51.380;13.762;2023-03-14T12:18:52;16.50;55.20
27266;DHT22;14766;51.380;13.762;2023-03-14T12:21:20;16.50;54.90
27266;DHT22;14766;51.380;13.762;2023-03-14T12:23:57;16.50;54.90
27266;DHT22;14766;51.380;13.762;2023-03-14T12:26:27;16.50;54.40
27266;DHT22;14766;51.380;13.762;2023-03-14T12:34:25;16.50;55.00
27266;DHT22;14766;51.380;13.762;2023-03-14T12:48:07;16.30;58.50
27266;DHT22;14766;51.380;13.762;2023-03-14T12:50:45;16.20;58.50
27266;DHT22;14766;51.380;13.762;2023-03-14T12:56:07;16.10;59.00
27266;DHT22;14766;51.380;13.762;2023-03-14T13:01:33;15.90;62.00
27266;DHT22;14766;51.380;13.762;2023-03-14T13:04:09;15.90;62.20
27266;DHT22;14766;51.380;13.762;2023-03-14T13:06:54;15.90;62.70
27266;DHT22;14766;51.380;13.762;2023-03-14T13:12:13;16.00;61.70
27266;DHT22;14766;51.380;13.762;2023-03-14T13:14:44;16.00;61.50
27266;DHT22;14766;51.380;13.762;2023-03-14T13:17:14;16.10;61.70
27266;DHT22;14766;51.380;13.762;2023-03-14T13:20:13;16.20;60.50
27266;DHT22;14766;51.380;13.762;2023-03-14T13:22:47;16.20;59.20
27266;DHT22;14766;51.380;13.762;2023-03-14T13:25:14;16.30;59.80
27266;DHT22;14766;51.380;13.762;2023-03-14T13:27:44;16.30;59.30
27266;DHT22;14766;51.380;13.762;2023-03-14T13:32:55;16.40;58.80
27266;DHT22;14766;51.380;13.762;2023-03-14T13:35:28;16.50;58.20
27266;DHT22;14766;51.380;13.762;2023-03-14T13:37:58;16.50;58.20
27266;DHT22;14766;51.380;13.762;2023-03-14T13:40:38;16.50;58.20
27266;DHT22;14766;51.380;13.762;2023-03-14T13:45:54;16.60;57.60
27266;DHT22;14766;51.380;13.762;2023-03-14T13:48:26;16.50;56.10
27266;DHT22;14766;51.380;13.762;2023-03-14T13:51:05;16.60;56.40
27266;DHT22;14766;51.380;13.762;2023-03-14T13:53:53;16.60;55.40
27266;DHT22;14766;51.380;13.762;2023-03-14T13:56:22;16.60;55.30
27266;DHT22;14766;51.380;13.762;2023-03-14T13:58:50;16.60;56.00
27266;DHT22;14766;51.380;13.762;2023-03-14T14:03:53;16.60;55.60
27266;DHT22;14766;51.380;13.762;2023-03-14T14:06:28;16.60;55.10
27266;DHT22;14766;51.380;13.762;2023-03-14T14:09:10;16.60;55.30
27266;DHT22;14766;51.380;13.762;2023-03-14T14:17:12;16.60;55.80
27266;DHT22;14766;51.380;13.762;2023-03-14T14:19:41;16.60;55.20
27266;DHT22;14766;51.380;13.762;2023-03-14T14:22:10;16.60;55.40
27266;DHT22;14766;51.380;13.762;2023-03-14T14:24:38;16.60;55.50
27266;DHT22;14766;51.380;13.762;2023-03-14T14:27:33;16.60;55.20
27266;DHT22;14766;51.380;13.762;2023-03-14T14:30:46;16.70;55.00
27266;DHT22;14766;51.380;13.762;2023-03-14T14:33:11;16.60;54.60
27266;DHT22;14766;51.380;13.762;2023-03-14T14:35:38;16.60;54.30
27266;DHT22;14766;51.380;13.762;2023-03-14T14:38:12;16.60;54.40
27266;DHT22;14766;51.380;13.762;2023-03-14T14:40:48;16.60;54.80
27266;DHT22;14766;51.380;13.762;2023-03-14T14:43:22;16.60;54.20
27266;DHT22;14766;51.380;13.762;2023-03-14T14:45:52;16.60;54.00
27266;DHT22;14766;51.380;13.762;2023-03-14T14:48:22;16.60;54.10
27266;DHT22;14766;51.380;13.762;2023-03-14T14:50:54;16.60;53.80
27266;DHT22;14766;51.380;13.762;2023-03-14T14:53:39;16.50;54.20
27266;DHT22;14766;51.380;13.762;2023-03-14T14:56:25;16.60;54.30
27266;DHT22;14766;51.380;13.762;2023-03-14T14:58:58;16.60;54.00
27266;DHT22;14766;51.380;13.762;2023-03-14T15:01:36;16.60;54.10
27266;DHT22;14766;51.380;13.762;2023-03-14T15:04:11;16.60;54.60
27266;DHT22;14766;51.380;13.762;2023-03-14T15:06:46;16.50;54.60
27266;DHT22;14766;51.380;13.762;2023-03-14T15:09:15;16.60;54.40
27266;DHT22;14766;51.380;13.762;2023-03-14T15:11:44;16.60;54.10
27266;DHT22;14766;51.380;13.762;2023-03-14T15:14:11;16.60;53.90
27266;DHT22;14766;51.380;13.762;2023-03-14T15:16:39;16.50;54.20
27266;DHT22;14766;51.380;13.762;2023-03-14T15:19:19;16.60;54.30
27266;DHT22;14766;51.380;13.762;2023-03-14T15:21:54;16.60;54.60
27266;DHT22;14766;51.380;13.762;2023-03-14T15:24:21;16.60;55.00
27266;DHT22;14766;51.380;13.762;2023-03-14T15:26:50;16.60;54.80
27266;DHT22;14766;51.380;13.762;2023-03-14T15:29:17;16.50;54.90
27266;DHT22;14766;51.380;13.762;2023-03-14T15:31:44;16.50;55.10
27266;DHT22;14766;51.380;13.762;2023-03-14T15:34:12;16.40;55.20
27266;DHT22;14766;51.380;13.762;2023-03-14T15:36:39;16.40;55.10
27266;DHT22;14766;51.380;13.762;2023-03-14T15:39:09;16.40;54.90
27266;DHT22;14766;51.380;13.762;2023-03-14T15:41:36;16.40;55.20
27266;DHT22;14766;51.380;13.762;2023-03-14T15:44:04;16.40;55.40
27266;DHT22;14766;51.380;13.762;2023-03-14T15:46:31;16.40;55.60
27266;DHT22;14766;51.380;13.762;2023-03-14T15:48:58;16.30;55.60
27266;DHT22;14766;51.380;13.762;2023-03-14T15:51:25;16.30;55.80
27266;DHT22;14766;51.380;13.762;2023-03-14T15:53:52;16.30;55.60
27266;DHT22;14766;51.380;13.762;2023-03-14T15:56:20;16.20;55.70
27266;DHT22;14766;51.380;13.762;2023-03-14T15:58:51;16.20;55.80
27266;DHT22;14766;51.380;13.762;2023-03-14T16:01:18;16.20;55.90
27266;DHT22;14766;51.380;13.762;2023-03-14T16:03:46;16.20;56.00
27266;DHT22;14766;51.380;13.762;2023-03-14T16:06:15;16.20;56.10
27266;DHT22;14766;51.380;13.762;2023-03-14T16:08:42;16.20;56.90
27266;DHT22;14766;51.380;13.762;2023-03-14T16:11:10;16.20;56.40
27266;DHT22;14766;51.380;13.762;2023-03-14T16:13:39;16.10;56.50
27266;DHT22;14766;51.380;13.762;2023-03-14T16:16:07;16.10;56.60
27266;DHT22;14766;51.380;13.762;2023-03-14T16:18:36;16.10;57.40
27266;DHT22;14766;51.380;13.762;2023-03-14T16:21:15;16.10;57.80
27266;DHT22;14766;51.380;13.762;2023-03-14T16:23:42;16.00;58.50
27266;DHT22;14766;51.380;13.762;2023-03-14T16:26:12;16.00;59.10
27266;DHT22;14766;51.380;13.762;2023-03-14T16:28:42;16.00;59.60
27266;DHT22;14766;51.380;13.762;2023-03-14T16:31:12;15.90;62.50
27266;DHT22;14766;51.380;13.762;2023-03-14T16:33:39;15.80;61.80
27266;DHT22;14766;51.380;13.762;2023-03-14T16:36:09;15.60;61.10
27266;DHT22;14766;51.380;13.762;2023-03-14T16:38:39;15.40;60.70
27266;DHT22;14766;51.380;13.762;2023-03-14T16:43:36;14.90;61.20
27266;DHT22;14766;51.380;13.762;2023-03-14T16:46:05;14.60;61.40
27266;DHT22;14766;51.380;13.762;2023-03-14T16:48:34;14.30;62.10
27266;DHT22;14766;51.380;13.762;2023-03-14T16:51:01;14.10;63.00
27266;DHT22;14766;51.380;13.762;2023-03-14T16:53:29;13.90;63.70
27266;DHT22;14766;51.380;13.762;2023-03-14T16:55:58;13.70;64.30
27266;DHT22;14766;51.380;13.762;2023-03-14T16:58:26;13.50;65.30
27266;DHT22;14766;51.380;13.762;2023-03-14T17:00:53;13.40;65.80
27266;DHT22;14766;51.380;13.762;2023-03-14T17:03:24;13.20;66.30
27266;DHT22;14766;51.380;13.762;2023-03-14T17:05:53;13.00;66.20
27266;DHT22;14766;51.380;13.762;2023-03-14T17:08:20;12.90;66.20
27266;DHT22;14766;51.380;13.762;2023-03-14T17:10:48;12.70;65.70